Time;durP1;ratioP1;P1;durP2;ratioP2;P2;SDS_P1;SDS_P2;PMS_P1;PMS_P2;Temp;Humidity;BMP_temperature;BMP_pressure;BME280_temperature;BME280_humidity;BME280_pressure;Samples;Min_cycle;Max_cycle;Signal;HPM_P1;HPM_P2
2020/12/12 00:01:20;;;;;;;38.10;24.53;;;;;;;;;;4938392;29;20190;-77
2020/12/12 00:03:47;;;;;;;40.43;24.03;;;;;;;;;;4938152;29;20641;-77
2020/12/12 00:06:13;;;;;;;45.43;25.50;;;;;;;;;;4937711;29;20211;-78
2020/12/12 00:08:39;;;;;;;45.40;26.03;;;;;;;;;;4931140;29;20187;-77
2020/12/12 00:11:06;;;;;;;42.07;24.77;;;;;;;;;;4922396;29;20188;-77
2020/12/12 00:13:32;;;;;;;43.40;24.63;;;;;;;;;;4935971;29;20201;-77
2020/12/12 00:15:58;;;;;;;42.83;25.57;;;;;;;;;;4927409;29;20274;-76
2020/12/12 00:18:24;;;;;;;52.27;27.27;;;;;;;;;;4933462;29;20181;-77
2020/12/12 00:20:51;;;;;;;43.87;25.73;;;;;;;;;;4937955;29;20381;-77
2020/12/12 00:23:17;;;;;;;41.03;23.87;;;;;;;;;;4927926;29;20210;-78
2020/12/12 00:25:47;;;;;;;45.20;26.03;;;;;;;;;;4919899;29;20206;-78
2020/12/12 00:28:13;;;;;;;45.77;26.67;;;;;;;;;;4927361;29;20215;-77
2020/12/12 00:30:40;;;;;;;43.53;25.70;;;;;;;;;;4952880;29;20685;-77
2020/12/12 00:33:06;;;;;;;48.80;26.47;;;;;;;;;;4939067;29;20189;-77
2020/12/12 00:35:33;;;;;;;43.50;25.30;;;;;;;;;;4953271;29;20686;-76
2020/12/12 00:37:59;;;;;;;41.50;25.13;;;;;;;;;;4954830;29;20637;-78
2020/12/12 00:40:25;;;;;;;46.37;25.87;;;;;;;;;;4938822;29;20264;-77
2020/12/12 00:42:52;;;;;;;46.87;25.90;;;;;;;;;;4920853;29;20190;-77
2020/12/12 00:45:18;;;;;;;42.77;26.03;;;;;;;;;;4965605;23;20236;-77
2020/12/12 00:47:44;;;;;;;39.03;24.60;;;;;;;;;;4971182;28;20180;-78
2020/12/12 00:50:10;;;;;;;49.37;26.43;;;;;;;;;;4973114;28;20176;-77
2020/12/12 00:52:36;;;;;;;45.37;25.90;;;;;;;;;;4973087;28;20267;-78
2020/12/12 00:55:03;;;;;;;40.33;24.33;;;;;;;;;;4974008;28;20240;-77
2020/12/12 00:57:29;;;;;;;45.63;25.93;;;;;;;;;;4965488;28;20644;-77
2020/12/12 00:59:55;;;;;;;43.23;25.40;;;;;;;;;;4973179;28;20201;-77
2020/12/12 01:02:21;;;;;;;42.23;25.20;;;;;;;;;;4974734;28;20189;-77
2020/12/12 01:04:47;;;;;;;45.17;25.40;;;;;;;;;;4970128;28;20275;-78
2020/12/12 01:07:14;;;;;;;43.33;25.10;;;;;;;;;;4955297;28;20264;-77
2020/12/12 01:09:40;;;;;;;42.10;24.17;;;;;;;;;;4940823;28;20657;-79
2020/12/12 01:12:06;;;;;;;53.33;29.03;;;;;;;;;;4947595;28;20177;-77
2020/12/12 01:14:32;;;;;;;46.90;27.93;;;;;;;;;;4965568;28;20208;-78
2020/12/12 01:16:59;;;;;;;47.20;27.50;;;;;;;;;;4972427;28;20196;-78
2020/12/12 01:19:26;;;;;;;47.03;26.60;;;;;;;;;;4972722;28;20172;-78
2020/12/12 01:21:55;;;;;;;48.73;27.40;;;;;;;;;;4973237;28;20172;-77
2020/12/12 01:24:21;;;;;;;44.93;26.30;;;;;;;;;;4973537;28;20192;-78
2020/12/12 01:26:48;;;;;;;47.77;28.03;;;;;;;;;;4973280;28;20616;-78
2020/12/12 01:29:14;;;;;;;45.30;25.90;;;;;;;;;;4973695;28;20180;-77
2020/12/12 01:31:40;;;;;;;45.67;26.73;;;;;;;;;;4974118;28;20200;-77
2020/12/12 01:34:07;;;;;;;48.30;27.57;;;;;;;;;;4967891;28;20249;-77
2020/12/12 01:36:33;;;;;;;47.77;26.80;;;;;;;;;;4954852;28;20205;-77
2020/12/12 01:39:00;;;;;;;45.07;27.23;;;;;;;;;;4969149;28;20170;-78
2020/12/12 01:41:26;;;;;;;47.93;28.23;;;;;;;;;;4973783;28;20176;-77
2020/12/12 01:43:53;;;;;;;46.80;27.40;;;;;;;;;;4974005;28;20173;-77
2020/12/12 01:46:22;;;;;;;45.70;27.13;;;;;;;;;;4973703;28;20294;-78
2020/12/12 01:48:48;;;;;;;45.37;27.30;;;;;;;;;;4973856;28;20181;-78
2020/12/12 01:51:15;;;;;;;45.90;27.70;;;;;;;;;;4974142;28;20173;-77
2020/12/12 01:53:41;;;;;;;48.43;28.03;;;;;;;;;;4974048;28;20177;-77
2020/12/12 01:56:07;;;;;;;50.97;28.43;;;;;;;;;;4973691;28;20295;-77
2020/12/12 01:58:33;;;;;;;51.13;29.10;;;;;;;;;;4973867;28;20245;-77
2020/12/12 02:01:00;;;;;;;49.67;27.47;;;;;;;;;;4974099;28;20176;-77
2020/12/12 02:03:26;;;;;;;50.30;26.73;;;;;;;;;;4972727;28;20536;-77
2020/12/12 02:05:53;;;;;;;47.40;26.87;;;;;;;;;;4974713;28;20235;-77
2020/12/12 02:08:19;;;;;;;47.07;27.13;;;;;;;;;;4977185;28;20205;-77
2020/12/12 02:10:47;;;;;;;50.50;27.83;;;;;;;;;;4969003;28;20191;-77
2020/12/12 02:13:14;;;;;;;49.07;28.37;;;;;;;;;;4967584;28;20549;-77
2020/12/12 02:15:40;;;;;;;54.00;28.87;;;;;;;;;;4977096;28;20210;-77
2020/12/12 02:18:07;;;;;;;56.13;29.47;;;;;;;;;;4977282;28;20183;-77
2020/12/12 02:20:34;;;;;;;53.87;28.90;;;;;;;;;;4977198;28;20252;-78
2020/12/12 02:23:01;;;;;;;53.37;29.33;;;;;;;;;;4977163;28;20235;-78
2020/12/12 02:25:27;;;;;;;53.60;29.60;;;;;;;;;;4976982;28;20259;-78
2020/12/12 02:27:56;;;;;;;52.63;28.93;;;;;;;;;;4976888;28;20686;-77
2020/12/12 02:30:23;;;;;;;57.23;30.57;;;;;;;;;;4976906;28;20180;-77
2020/12/12 02:32:49;;;;;;;56.00;30.23;;;;;;;;;;4977087;28;20561;-78
2020/12/12 02:35:16;;;;;;;61.77;31.90;;;;;;;;;;4976752;28;20548;-77
2020/12/12 02:37:42;;;;;;;70.43;34.77;;;;;;;;;;4975391;28;20172;-77
2020/12/12 02:40:08;;;;;;;61.77;32.63;;;;;;;;;;4976955;28;20303;-77
2020/12/12 02:42:34;;;;;;;57.73;29.90;;;;;;;;;;4976837;28;20238;-77
2020/12/12 02:45:01;;;;;;;52.97;29.80;;;;;;;;;;4976384;28;21059;-77
2020/12/12 02:47:27;;;;;;;58.07;30.80;;;;;;;;;;4976412;28;20255;-77
2020/12/12 02:50:02;;;;;;;58.93;30.33;;;;;;;;;;4976836;28;20176;-77
2020/12/12 02:52:29;;;;;;;71.53;34.93;;;;;;;;;;4972048;28;20177;-76
2020/12/12 02:54:55;;;;;;;57.70;32.00;;;;;;;;;;4950868;28;20565;-77
2020/12/12 02:57:21;;;;;;;56.40;29.80;;;;;;;;;;4952446;28;20177;-77
2020/12/12 02:59:47;;;;;;;55.67;29.90;;;;;;;;;;4972166;28;20165;-78
2020/12/12 03:02:14;;;;;;;57.93;29.57;;;;;;;;;;4975997;28;20185;-77
2020/12/12 03:04:40;;;;;;;55.33;29.73;;;;;;;;;;4976411;28;20176;-78
2020/12/12 03:07:07;;;;;;;114.80;48.40;;;;;;;;;;4975943;28;20275;-78
2020/12/12 03:09:33;;;;;;;72.67;34.77;;;;;;;;;;4967226;28;20177;-78
2020/12/12 03:12:01;;;;;;;55.17;30.43;;;;;;;;;;4976393;28;20580;-77
2020/12/12 03:14:27;;;;;;;55.70;29.57;;;;;;;;;;4976005;28;20216;-78
2020/12/12 03:16:53;;;;;;;60.83;30.57;;;;;;;;;;4974565;28;20814;-77
2020/12/12 03:19:19;;;;;;;59.77;31.33;;;;;;;;;;4975995;28;20181;-77
2020/12/12 03:21:45;;;;;;;100.20;40.30;;;;;;;;;;4975817;28;20644;-77
2020/12/12 03:24:11;;;;;;;102.07;40.70;;;;;;;;;;4975787;28;20179;-77
2020/12/12 03:26:38;;;;;;;74.13;34.27;;;;;;;;;;4965106;28;20212;-78
2020/12/12 03:29:04;;;;;;;57.23;29.33;;;;;;;;;;4972876;28;20168;-78
2020/12/12 03:31:30;;;;;;;97.40;42.33;;;;;;;;;;4975675;28;20183;-78
2020/12/12 03:33:57;;;;;;;59.37;30.37;;;;;;;;;;4975936;28;20184;-78
2020/12/12 03:36:23;;;;;;;79.10;38.73;;;;;;;;;;4975707;28;20208;-77
2020/12/12 03:38:50;;;;;;;53.63;29.20;;;;;;;;;;4975877;28;20204;-78
2020/12/12 03:41:16;;;;;;;51.07;29.07;;;;;;;;;;4975865;28;20180;-78
2020/12/12 03:43:42;;;;;;;58.90;31.60;;;;;;;;;;4975879;28;20259;-78
2020/12/12 03:46:09;;;;;;;54.40;29.27;;;;;;;;;;4975285;28;20244;-78
2020/12/12 03:48:35;;;;;;;58.47;30.40;;;;;;;;;;4975790;28;20212;-77
2020/12/12 03:51:02;;;;;;;60.43;29.83;;;;;;;;;;4975751;28;20211;-78
2020/12/12 03:53:28;;;;;;;54.57;29.33;;;;;;;;;;4976740;28;20647;-78
2020/12/12 03:55:54;;;;;;;58.67;30.73;;;;;;;;;;4976766;28;20215;-78
2020/12/12 03:58:20;;;;;;;71.73;35.30;;;;;;;;;;4975880;28;20180;-78
2020/12/12 04:00:47;;;;;;;58.07;30.93;;;;;;;;;;4976185;28;20272;-78
2020/12/12 04:03:13;;;;;;;53.13;28.87;;;;;;;;;;4976347;28;20255;-78
2020/12/12 04:05:43;;;;;;;56.77;29.67;;;;;;;;;;4976544;28;20232;-78
2020/12/12 04:08:10;;;;;;;57.53;30.73;;;;;;;;;;4976827;28;20177;-78
2020/12/12 04:10:36;;;;;;;51.83;28.03;;;;;;;;;;4960810;28;20177;-78
2020/12/12 04:13:02;;;;;;;61.57;30.90;;;;;;;;;;4970817;28;20184;-78
2020/12/12 04:15:28;;;;;;;50.73;28.87;;;;;;;;;;4976330;28;20211;-78
2020/12/12 04:17:55;;;;;;;51.60;28.07;;;;;;;;;;4976037;28;20256;-78
2020/12/12 04:20:21;;;;;;;48.67;26.50;;;;;;;;;;4975319;28;20182;-78
2020/12/12 04:22:47;;;;;;;52.50;28.43;;;;;;;;;;4975357;28;20710;-78
2020/12/12 04:25:13;;;;;;;49.80;28.00;;;;;;;;;;4976104;28;20283;-78
2020/12/12 04:27:39;;;;;;;50.53;27.47;;;;;;;;;;4975426;28;20208;-78
2020/12/12 04:30:06;;;;;;;53.73;30.33;;;;;;;;;;4974983;28;20184;-78
2020/12/12 04:32:32;;;;;;;54.13;28.27;;;;;;;;;;4975263;28;20635;-78
2020/12/12 04:34:58;;;;;;;48.27;27.03;;;;;;;;;;4975106;28;20208;-78
2020/12/12 04:37:25;;;;;;;46.73;27.03;;;;;;;;;;4975172;28;20176;-78
2020/12/12 04:39:51;;;;;;;55.43;28.70;;;;;;;;;;4975422;28;20203;-78
2020/12/12 04:42:18;;;;;;;49.50;27.27;;;;;;;;;;4975375;28;20264;-78
2020/12/12 04:44:44;;;;;;;53.43;28.67;;;;;;;;;;4974775;28;20490;-78
2020/12/12 04:47:10;;;;;;;51.73;27.20;;;;;;;;;;4973970;28;20643;-78
2020/12/12 04:49:36;;;;;;;49.90;28.07;;;;;;;;;;4974941;28;20649;-78
2020/12/12 04:52:04;;;;;;;51.00;27.57;;;;;;;;;;4957855;28;20529;-78
2020/12/12 04:54:32;;;;;;;49.10;27.07;;;;;;;;;;4974768;28;20187;-78
2020/12/12 04:56:58;;;;;;;48.00;28.50;;;;;;;;;;4973491;28;20208;-78
2020/12/12 04:59:26;;;;;;;50.20;28.23;;;;;;;;;;4974850;28;20186;-79
2020/12/12 05:01:53;;;;;;;48.93;27.07;;;;;;;;;;4948505;28;20182;-78
2020/12/12 05:04:19;;;;;;;46.37;26.13;;;;;;;;;;4940804;28;20205;-77
2020/12/12 05:06:46;;;;;;;52.70;28.33;;;;;;;;;;4955021;28;20236;-79
2020/12/12 05:09:12;;;;;;;53.53;27.40;;;;;;;;;;4958306;28;20173;-79
2020/12/12 05:11:38;;;;;;;47.87;26.10;;;;;;;;;;4957996;28;20602;-78
2020/12/12 05:14:09;;;;;;;45.10;25.47;;;;;;;;;;4973992;28;20586;-78
2020/12/12 05:16:35;;;;;;;45.77;25.50;;;;;;;;;;4973386;28;20558;-78
2020/12/12 05:19:03;;;;;;;39.23;22.80;;;;;;;;;;4975150;28;20177;-78
2020/12/12 05:21:29;;;;;;;39.43;23.67;;;;;;;;;;4973877;28;20180;-78
2020/12/12 05:23:55;;;;;;;42.47;25.33;;;;;;;;;;4973553;28;20263;-78
2020/12/12 05:26:24;;;;;;;42.43;25.00;;;;;;;;;;4974472;28;20690;-78
2020/12/12 05:28:50;;;;;;;42.27;24.87;;;;;;;;;;4973234;28;20181;-78
2020/12/12 05:31:18;;;;;;;41.50;25.10;;;;;;;;;;4969816;28;20543;-78
2020/12/12 05:33:44;;;;;;;45.33;26.03;;;;;;;;;;4968251;28;20173;-78
2020/12/12 05:36:11;;;;;;;44.40;25.00;;;;;;;;;;4975173;28;20204;-78
2020/12/12 05:38:39;;;;;;;44.87;26.27;;;;;;;;;;4974557;28;20185;-79
2020/12/12 05:41:05;;;;;;;42.30;25.47;;;;;;;;;;4976423;28;20192;-78
2020/12/12 05:43:36;;;;;;;41.10;25.00;;;;;;;;;;4978972;28;20231;-78
2020/12/12 05:46:02;;;;;;;48.43;26.43;;;;;;;;;;4978077;28;20268;-78
2020/12/12 05:48:29;;;;;;;43.37;26.10;;;;;;;;;;4979457;28;20180;-78
2020/12/12 05:50:55;;;;;;;44.67;25.63;;;;;;;;;;4979218;28;20180;-78
2020/12/12 05:53:28;;;;;;;43.27;26.00;;;;;;;;;;4980549;28;20187;-78
2020/12/12 05:55:55;;;;;;;44.27;25.17;;;;;;;;;;4979647;28;20305;-78
2020/12/12 05:58:21;;;;;;;48.33;27.23;;;;;;;;;;4980267;28;20176;-78
2020/12/12 06:00:48;;;;;;;47.03;25.53;;;;;;;;;;4980741;28;20181;-78
2020/12/12 06:03:31;;;;;;;44.43;25.23;;;;;;;;;;4979294;28;20168;-79
2020/12/12 06:06:07;;;;;;;46.13;26.10;;;;;;;;;;4979387;28;20621;-78
2020/12/12 06:08:34;;;;;;;40.03;23.40;;;;;;;;;;4978861;28;20180;-79
2020/12/12 06:11:03;;;;;;;42.40;24.73;;;;;;;;;;4971880;28;20176;-78
2020/12/12 06:13:33;;;;;;;41.20;23.53;;;;;;;;;;4979101;28;20196;-78
2020/12/12 06:16:02;;;;;;;43.23;25.00;;;;;;;;;;4964194;28;20221;-78
2020/12/12 06:18:42;;;;;;;46.53;27.40;;;;;;;;;;4960353;28;20185;-78
2020/12/12 06:21:09;;;;;;;47.33;27.63;;;;;;;;;;4971356;28;20646;-78
2020/12/12 06:23:39;;;;;;;47.10;27.60;;;;;;;;;;4979593;28;20177;-78
2020/12/12 06:26:10;;;;;;;49.13;27.23;;;;;;;;;;4978594;28;20292;-78
2020/12/12 06:28:42;;;;;;;49.93;27.07;;;;;;;;;;4979505;28;20176;-78
2020/12/12 06:31:12;;;;;;;49.87;27.67;;;;;;;;;;4976941;28;20183;-79
2020/12/12 06:33:48;;;;;;;48.83;27.20;;;;;;;;;;4972918;28;20589;-78
2020/12/12 06:36:28;;;;;;;49.23;26.87;;;;;;;;;;4965230;28;20223;-78
2020/12/12 06:39:12;;;;;;;50.57;28.03;;;;;;;;;;4959337;28;20191;-80
2020/12/12 06:41:38;;;;;;;52.83;27.30;;;;;;;;;;4959749;28;20200;-79
2020/12/12 06:44:04;;;;;;;49.00;26.33;;;;;;;;;;4959687;28;20644;-78
2020/12/12 06:46:49;;;;;;;52.87;28.17;;;;;;;;;;4973754;23;20232;-78
2020/12/12 06:49:15;;;;;;;47.27;27.27;;;;;;;;;;4959527;28;20187;-78
2020/12/12 06:51:41;;;;;;;48.27;27.17;;;;;;;;;;4975540;28;20255;-77
2020/12/12 06:54:10;;;;;;;48.47;26.27;;;;;;;;;;4976763;28;20705;-79
2020/12/12 06:56:36;;;;;;;50.03;27.90;;;;;;;;;;4976492;28;20259;-77
2020/12/12 06:59:21;;;;;;;46.83;26.87;;;;;;;;;;4976935;28;20234;-77
2020/12/12 07:01:54;;;;;;;47.73;26.73;;;;;;;;;;4968680;28;20188;-77
2020/12/12 07:04:28;;;;;;;47.70;26.33;;;;;;;;;;4962545;28;20248;-78
2020/12/12 07:06:59;;;;;;;51.33;28.87;;;;;;;;;;4956785;28;20205;-78
2020/12/12 07:09:26;;;;;;;81.93;46.00;;;;;;;;;;4961942;28;20212;-77
2020/12/12 07:11:53;;;;;;;61.07;31.80;;;;;;;;;;4957350;28;20177;-78
2020/12/12 07:14:19;;;;;;;48.43;27.87;;;;;;;;;;4955590;28;20203;-78
2020/12/12 07:16:55;;;;;;;;;;;;;;;;;;;;;
2020/12/12 07:19:36;;;;;;;53.67;28.07;;;;;;;;;;4967683;28;20182;-77
2020/12/12 07:22:04;;;;;;;45.10;25.40;;;;;;;;;;4963829;28;20235;-76
2020/12/12 07:24:30;;;;;;;48.77;26.63;;;;;;;;;;4964030;28;20211;-77
2020/12/12 07:26:58;;;;;;;46.47;27.00;;;;;;;;;;4972790;28;20570;-77
2020/12/12 07:29:24;;;;;;;45.30;25.40;;;;;;;;;;4965769;28;20652;-77
2020/12/12 07:31:51;;;;;;;48.40;26.57;;;;;;;;;;4957130;28;20264;-77
2020/12/12 07:34:18;;;;;;;53.80;29.50;;;;;;;;;;4974311;28;20183;-77
2020/12/12 07:36:45;;;;;;;50.90;28.30;;;;;;;;;;4976193;28;20242;-77
2020/12/12 07:39:11;;;;;;;48.67;26.27;;;;;;;;;;4963729;28;20232;-79
2020/12/12 07:41:45;;;;;;;50.87;28.13;;;;;;;;;;4964262;28;20197;-77
2020/12/12 07:44:11;;;;;;;48.03;26.33;;;;;;;;;;4972108;28;20618;-77
2020/12/12 07:46:39;;;;;;;47.13;25.93;;;;;;;;;;4976598;28;20299;-78
2020/12/12 07:49:05;;;;;;;51.60;27.70;;;;;;;;;;4975349;28;20192;-79
2020/12/12 07:51:31;;;;;;;43.83;24.63;;;;;;;;;;4975982;28;20180;-78
2020/12/12 07:53:58;;;;;;;50.47;28.87;;;;;;;;;;4975942;28;20184;-77
2020/12/12 07:56:25;;;;;;;47.73;27.07;;;;;;;;;;4975506;28;20295;-79
2020/12/12 07:59:00;;;;;;;50.67;28.10;;;;;;;;;;4975857;28;20227;-78
2020/12/12 08:01:26;;;;;;;51.33;28.17;;;;;;;;;;4975975;28;20172;-78
2020/12/12 08:03:52;;;;;;;50.33;27.53;;;;;;;;;;4978305;28;20218;-78
2020/12/12 08:06:19;;;;;;;53.50;28.60;;;;;;;;;;4979142;28;20573;-78
2020/12/12 08:08:52;;;;;;;52.23;28.00;;;;;;;;;;4979198;28;20263;-78
2020/12/12 08:11:18;;;;;;;50.33;28.40;;;;;;;;;;4973940;28;20189;-79
2020/12/12 08:13:45;;;;;;;50.83;27.00;;;;;;;;;;4977820;28;20204;-79
2020/12/12 08:18:37;;;;;;;52.70;29.03;;;;;;;;;;4965456;28;20690;-77
2020/12/12 08:21:12;;;;;;;57.30;31.17;;;;;;;;;;4957806;28;20177;-77
2020/12/12 08:23:39;;;;;;;60.87;32.30;;;;;;;;;;4958597;28;20173;-77
2020/12/12 08:26:05;;;;;;;61.10;32.60;;;;;;;;;;4962668;28;20199;-77
2020/12/12 08:28:33;;;;;;;59.07;32.43;;;;;;;;;;4975154;28;20188;-77
2020/12/12 08:31:08;;;;;;;70.20;35.40;;;;;;;;;;4975013;28;20206;-77
2020/12/12 08:33:34;;;;;;;46.97;26.50;;;;;;;;;;4960605;28;20192;-77
2020/12/12 08:36:30;;;;;;;139.87;49.30;;;;;;;;;;4956799;28;20209;-77
2020/12/12 08:39:00;;;;;;;63.20;29.53;;;;;;;;;;4946662;28;20196;-78
2020/12/12 08:41:31;;;;;;;84.43;36.37;;;;;;;;;;4975014;28;20180;-77
2020/12/12 08:43:57;;;;;;;90.60;36.77;;;;;;;;;;4971252;28;20195;-77
2020/12/12 08:46:24;;;;;;;110.77;40.80;;;;;;;;;;4966086;28;20216;-78
2020/12/12 08:48:51;;;;;;;53.13;28.13;;;;;;;;;;4956635;28;20671;-78
2020/12/12 08:51:23;;;;;;;53.53;27.60;;;;;;;;;;4971684;28;20199;-76
2020/12/12 08:53:50;;;;;;;56.27;29.23;;;;;;;;;;4950323;28;20181;-78
2020/12/12 08:56:22;;;;;;;58.17;29.13;;;;;;;;;;4953782;28;20231;-78
2020/12/12 08:58:54;;;;;;;60.17;30.83;;;;;;;;;;4954822;28;20735;-79
2020/12/12 09:01:22;;;;;;;62.13;31.57;;;;;;;;;;4955857;28;20184;-79
2020/12/12 09:03:54;;;;;;;52.70;27.63;;;;;;;;;;4963694;28;20235;-78
2020/12/12 09:06:20;;;;;;;107.50;42.13;;;;;;;;;;4974334;28;20254;-78
2020/12/12 09:08:47;;;;;;;62.73;31.30;;;;;;;;;;4965112;28;20609;-79
2020/12/12 09:11:14;;;;;;;58.47;28.53;;;;;;;;;;4954698;28;20715;-79
2020/12/12 09:13:40;;;;;;;55.40;28.00;;;;;;;;;;4955189;28;20718;-78
2020/12/12 09:16:10;;;;;;;54.87;29.43;;;;;;;;;;4958041;28;20224;-78
2020/12/12 09:18:45;;;;;;;54.60;30.23;;;;;;;;;;4960393;28;20177;-79
2020/12/12 09:21:12;;;;;;;56.13;30.00;;;;;;;;;;4959148;28;20264;-79
2020/12/12 09:23:38;;;;;;;84.07;41.53;;;;;;;;;;4960362;28;20188;-79
2020/12/12 09:26:04;;;;;;;82.60;39.50;;;;;;;;;;4965945;28;20755;-78
2020/12/12 09:28:31;;;;;;;122.33;54.93;;;;;;;;;;4978478;28;20184;-79
2020/12/12 09:30:57;;;;;;;77.07;36.27;;;;;;;;;;4978328;28;20177;-79
2020/12/12 09:33:23;;;;;;;53.00;29.27;;;;;;;;;;4978177;28;20655;-79
2020/12/12 09:35:49;;;;;;;65.13;32.93;;;;;;;;;;4970210;28;20264;-80
2020/12/12 09:38:15;;;;;;;122.03;48.57;;;;;;;;;;4978337;28;20647;-79
2020/12/12 09:40:49;;;;;;;57.40;30.13;;;;;;;;;;4978406;28;20183;-79
2020/12/12 09:43:15;;;;;;;54.13;29.30;;;;;;;;;;4976829;28;20177;-80
2020/12/12 09:45:44;;;;;;;342.70;116.43;;;;;;;;;;4977697;28;20212;-79
2020/12/12 09:48:11;;;;;;;72.80;37.57;;;;;;;;;;4977086;28;20528;-80
2020/12/12 09:50:37;;;;;;;80.60;39.03;;;;;;;;;;4978223;28;20196;-80
2020/12/12 09:53:04;;;;;;;92.87;45.10;;;;;;;;;;4976913;28;20227;-80
2020/12/12 09:55:31;;;;;;;94.53;43.90;;;;;;;;;;4978590;28;20296;-79
2020/12/12 09:57:58;;;;;;;76.17;39.23;;;;;;;;;;4976811;28;20185;-79
2020/12/12 10:00:25;;;;;;;58.07;31.90;;;;;;;;;;4978597;28;20181;-80
2020/12/12 10:02:51;;;;;;;61.70;33.33;;;;;;;;;;4978067;28;20191;-79
2020/12/12 10:05:18;;;;;;;55.53;29.30;;;;;;;;;;4973642;28;20185;-80
2020/12/12 10:07:44;;;;;;;58.50;31.40;;;;;;;;;;4978485;28;20188;-80
2020/12/12 10:10:10;;;;;;;52.47;29.17;;;;;;;;;;4968062;28;20232;-80
2020/12/12 10:12:37;;;;;;;51.90;29.37;;;;;;;;;;4977969;28;20184;-82
2020/12/12 10:15:04;;;;;;;47.67;27.70;;;;;;;;;;4976392;28;20176;-79
2020/12/12 10:17:31;;;;;;;67.60;35.07;;;;;;;;;;4977631;28;20204;-75
2020/12/12 10:19:57;;;;;;;129.73;58.57;;;;;;;;;;4977648;28;20181;-78
2020/12/12 10:22:23;;;;;;;78.67;39.73;;;;;;;;;;4977560;28;20201;-79
2020/12/12 10:24:49;;;;;;;75.30;36.93;;;;;;;;;;4969902;28;20556;-79
2020/12/12 10:27:15;;;;;;;52.80;29.00;;;;;;;;;;4973033;28;20597;-78
2020/12/12 10:29:41;;;;;;;57.50;32.47;;;;;;;;;;4977668;28;20646;-79
2020/12/12 10:32:07;;;;;;;48.50;27.43;;;;;;;;;;4977635;28;20186;-79
2020/12/12 10:34:34;;;;;;;48.57;26.63;;;;;;;;;;4977575;28;20275;-78
2020/12/12 10:37:00;;;;;;;45.30;26.63;;;;;;;;;;4976117;28;20247;-79
2020/12/12 10:39:32;;;;;;;44.73;26.47;;;;;;;;;;4964340;28;20231;-79
2020/12/12 10:42:01;;;;;;;45.83;26.03;;;;;;;;;;4976776;28;20680;-79
2020/12/12 10:44:27;;;;;;;51.83;28.40;;;;;;;;;;4975612;28;20240;-80
2020/12/12 10:46:53;;;;;;;44.73;26.80;;;;;;;;;;4968029;28;20296;-79
2020/12/12 10:49:20;;;;;;;48.47;27.50;;;;;;;;;;4959973;28;20547;-80
2020/12/12 10:51:52;;;;;;;49.37;29.10;;;;;;;;;;4976172;28;20676;-78
2020/12/12 10:54:18;;;;;;;43.30;27.00;;;;;;;;;;4976234;28;20193;-78
2020/12/12 10:56:44;;;;;;;52.13;28.57;;;;;;;;;;4975720;28;20219;-79
2020/12/12 10:59:14;;;;;;;47.20;26.70;;;;;;;;;;4976081;28;20283;-80
2020/12/12 11:01:40;;;;;;;51.27;27.80;;;;;;;;;;4966143;28;20184;-79
2020/12/12 11:04:07;;;;;;;48.33;27.37;;;;;;;;;;4968899;28;20223;-80
2020/12/12 11:06:33;;;;;;;46.10;27.67;;;;;;;;;;4970453;28;20299;-79
2020/12/12 11:08:59;;;;;;;56.90;28.27;;;;;;;;;;4971931;28;20188;-81
2020/12/12 11:11:26;;;;;;;49.40;27.47;;;;;;;;;;4972184;28;20644;-79
2020/12/12 11:13:52;;;;;;;45.93;26.80;;;;;;;;;;4965075;28;20663;-80
2020/12/12 11:16:19;;;;;;;44.30;26.30;;;;;;;;;;4976774;28;20243;-81
2020/12/12 11:18:50;;;;;;;46.70;27.90;;;;;;;;;;4977408;28;20196;-80
2020/12/12 11:21:20;;;;;;;39.03;25.07;;;;;;;;;;4962120;28;20194;-80
2020/12/12 11:23:47;;;;;;;44.50;25.03;;;;;;;;;;4976347;28;20212;-81
2020/12/12 11:26:13;;;;;;;61.77;31.40;;;;;;;;;;4975561;28;20671;-80
2020/12/12 11:28:40;;;;;;;74.70;37.03;;;;;;;;;;4975438;28;20188;-81
2020/12/12 11:31:06;;;;;;;45.43;26.70;;;;;;;;;;4972196;28;20312;-79
2020/12/12 11:33:35;;;;;;;41.40;24.83;;;;;;;;;;4967555;28;20656;-81
2020/12/12 11:36:17;;;;;;;34.30;22.23;;;;;;;;;;4971984;28;20300;-78
2020/12/12 11:38:57;;;;;;;33.27;22.20;;;;;;;;;;4956924;28;20215;-79
2020/12/12 11:44:21;;;;;;;34.17;22.80;;;;;;;;;;4957933;28;20196;-79
2020/12/12 11:46:47;;;;;;;32.83;21.30;;;;;;;;;;4958501;28;20279;-81
2020/12/12 11:49:14;;;;;;;29.20;20.30;;;;;;;;;;4969961;28;20185;-80
2020/12/12 11:51:40;;;;;;;27.73;20.23;;;;;;;;;;4963072;28;20560;-79
2020/12/12 11:54:06;;;;;;;23.30;17.63;;;;;;;;;;4975201;28;20181;-78
2020/12/12 11:56:37;;;;;;;26.77;19.70;;;;;;;;;;4975938;28;20222;-78
2020/12/12 11:59:03;;;;;;;25.63;18.80;;;;;;;;;;4975297;28;20185;-80
2020/12/12 12:01:30;;;;;;;25.80;18.57;;;;;;;;;;4976735;28;20214;-80
2020/12/12 12:03:57;;;;;;;26.43;18.73;;;;;;;;;;4976570;28;20267;-80
2020/12/12 12:06:23;;;;;;;27.13;19.43;;;;;;;;;;4976798;28;20263;-79
2020/12/12 12:11:32;;;;;;;23.47;17.47;;;;;;;;;;4973460;28;20283;-80
2020/12/12 12:13:59;;;;;;;24.80;17.53;;;;;;;;;;4976448;28;20176;-79
2020/12/12 12:16:25;;;;;;;20.83;16.53;;;;;;;;;;4962369;28;20214;-79
2020/12/12 12:18:52;;;;;;;23.30;17.33;;;;;;;;;;4976297;28;20189;-80
2020/12/12 12:21:18;;;;;;;27.23;18.50;;;;;;;;;;4975079;28;20552;-79
2020/12/12 12:23:44;;;;;;;22.30;16.90;;;;;;;;;;4953190;28;23216;-79
2020/12/12 12:26:13;;;;;;;23.80;17.53;;;;;;;;;;4946183;28;20205;-79
2020/12/12 12:28:40;;;;;;;22.37;17.07;;;;;;;;;;4947788;28;20193;-79
2020/12/12 12:31:06;;;;;;;24.93;17.73;;;;;;;;;;4947052;28;20196;-80
2020/12/12 12:33:32;;;;;;;21.03;17.17;;;;;;;;;;4951728;28;20189;-80
2020/12/12 12:35:58;;;;;;;22.57;18.07;;;;;;;;;;4953059;28;20208;-80
2020/12/12 12:38:25;;;;;;;23.37;17.70;;;;;;;;;;4959424;28;20561;-79
2020/12/12 12:40:51;;;;;;;22.07;17.17;;;;;;;;;;4963547;28;20177;-79
2020/12/12 12:43:17;;;;;;;27.97;19.30;;;;;;;;;;4958499;28;20181;-79
2020/12/12 12:45:43;;;;;;;24.67;17.83;;;;;;;;;;4950170;28;20236;-80
2020/12/12 12:48:09;;;;;;;18.83;16.10;;;;;;;;;;4944233;28;20185;-81
2020/12/12 12:50:39;;;;;;;20.70;16.00;;;;;;;;;;4952753;28;20190;-79
2020/12/12 12:53:06;;;;;;;19.43;15.67;;;;;;;;;;4941718;28;20197;-79
2020/12/12 12:55:32;;;;;;;18.33;15.73;;;;;;;;;;4942222;28;20211;-79
2020/12/12 12:57:59;;;;;;;21.57;16.63;;;;;;;;;;4945513;28;20181;-80
2020/12/12 13:00:26;;;;;;;20.63;16.60;;;;;;;;;;4953369;28;20225;-79
2020/12/12 13:02:52;;;;;;;22.30;16.17;;;;;;;;;;4948512;28;20342;-79
2020/12/12 13:05:19;;;;;;;19.30;14.30;;;;;;;;;;4945577;28;20713;-80
2020/12/12 13:07:45;;;;;;;18.47;14.70;;;;;;;;;;4952957;28;20283;-80
2020/12/12 13:10:11;;;;;;;18.20;15.43;;;;;;;;;;4957395;28;20563;-80
2020/12/12 13:12:37;;;;;;;17.03;14.63;;;;;;;;;;4958488;28;20178;-80
2020/12/12 13:15:03;;;;;;;15.87;14.17;;;;;;;;;;4954497;28;20671;-79
2020/12/12 13:17:30;;;;;;;14.67;13.17;;;;;;;;;;4976351;23;20214;-81
2020/12/12 13:20:21;;;;;;;14.77;13.17;;;;;;;;;;4956831;28;20190;-81
2020/12/12 13:22:44;;;;;;;14.40;12.90;;;;;;;;;;4940971;28;20187;-79
2020/12/12 13:25:11;;;;;;;14.33;12.83;;;;;;;;;;4954483;28;20174;-79
2020/12/12 13:27:39;;;;;;;14.13;12.13;;;;;;;;;;4968486;28;20200;-79
2020/12/12 13:32:31;;;;;;;14.17;12.87;;;;;;;;;;4960826;28;20554;-81
2020/12/12 13:34:58;;;;;;;15.90;13.67;;;;;;;;;;4973941;28;20178;-80
2020/12/12 13:37:24;;;;;;;16.73;12.77;;;;;;;;;;4966302;28;20264;-80
2020/12/12 13:39:50;;;;;;;15.50;13.90;;;;;;;;;;4968305;28;20267;-80
2020/12/12 13:42:17;;;;;;;14.63;13.13;;;;;;;;;;4955458;28;20170;-80
2020/12/12 13:44:44;;;;;;;14.90;13.40;;;;;;;;;;4968974;28;20558;-80
2020/12/12 13:47:11;;;;;;;14.87;12.90;;;;;;;;;;4972990;28;20190;-79
2020/12/12 13:49:37;;;;;;;14.43;12.83;;;;;;;;;;4967725;28;20205;-80
2020/12/12 13:52:03;;;;;;;13.07;11.67;;;;;;;;;;4955186;28;20183;-79
2020/12/12 13:54:30;;;;;;;12.93;11.63;;;;;;;;;;4963257;28;20188;-80
2020/12/12 13:56:56;;;;;;;16.10;12.47;;;;;;;;;;4965140;28;20229;-79
2020/12/12 13:59:22;;;;;;;13.47;12.07;;;;;;;;;;4963695;28;20207;-80
2020/12/12 14:01:49;;;;;;;13.90;12.43;;;;;;;;;;4962500;28;20547;-80
2020/12/12 14:04:15;;;;;;;14.70;11.70;;;;;;;;;;4979058;28;20643;-81
2020/12/12 14:06:46;;;;;;;13.63;12.20;;;;;;;;;;4960486;28;20187;-80
2020/12/12 14:22:37;;;;;;;12.77;10.97;;;;;;;;;;4963495;28;20272;-80
2020/12/12 14:25:08;;;;;;;12.23;11.10;;;;;;;;;;4969558;28;20178;-79
2020/12/12 14:30:23;;;;;;;12.07;10.90;;;;;;;;;;4962388;28;20201;-79
2020/12/12 14:32:49;;;;;;;11.20;10.10;;;;;;;;;;4951699;28;20184;-79
2020/12/12 14:35:15;;;;;;;10.80;9.80;;;;;;;;;;4957981;28;20210;-79
2020/12/12 14:37:41;;;;;;;11.30;10.20;;;;;;;;;;4960354;28;20683;-80
2020/12/12 14:40:08;;;;;;;10.23;9.23;;;;;;;;;;4977706;28;20174;-79
2020/12/12 14:42:34;;;;;;;9.50;8.60;;;;;;;;;;4977513;28;20269;-79
2020/12/12 14:45:00;;;;;;;9.30;8.50;;;;;;;;;;4963422;28;20614;-79
2020/12/12 14:47:27;;;;;;;8.97;8.20;;;;;;;;;;4969527;28;20670;-78